createdAt,value
2022-12-18T00:02:03.166Z,102020.87
2022-12-18T00:04:34.360Z,102022.66
2022-12-18T00:07:04.957Z,102021.61
2022-12-18T00:09:39.853Z,102022.19
2022-12-18T00:14:49.591Z,102022.50
2022-12-18T00:17:19.149Z,102033.06
2022-12-18T00:19:49.921Z,102048.25
2022-12-18T00:22:23.636Z,102052.69
2022-12-18T00:24:52.706Z,102052.27
2022-12-18T00:27:23.419Z,102051.33
2022-12-18T00:29:54.086Z,102053.02
2022-12-18T00:32:24.649Z,102052.00
2022-12-18T00:34:55.286Z,102045.84
2022-12-18T00:37:25.927Z,102047.42
2022-12-18T00:39:56.592Z,102052.38
2022-12-18T00:42:44.935Z,102054.30
2022-12-18T00:45:16.027Z,102066.91
2022-12-18T00:47:47.646Z,102074.23
2022-12-18T00:50:18.594Z,102072.82
2022-12-18T00:52:49.583Z,102072.66
2022-12-18T00:55:20.421Z,102080.61
2022-12-18T00:57:52.816Z,102084.40
2022-12-18T01:00:24.302Z,102081.05
2022-12-18T01:02:55.135Z,102077.65
2022-12-18T01:05:25.748Z,102071.83
2022-12-18T01:07:57.185Z,102068.02
2022-12-18T01:10:28.332Z,102073.42
2022-12-18T01:13:02.002Z,102079.20
2022-12-18T01:15:32.628Z,102066.88
2022-12-18T01:18:03.321Z,102082.77
2022-12-18T01:20:36.484Z,102086.52
2022-12-18T01:23:10.022Z,102084.23
2022-12-18T01:25:40.722Z,102090.34
2022-12-18T01:28:13.765Z,102103.35
2022-12-18T01:30:45.062Z,102103.15
2022-12-18T01:33:17.081Z,102101.89
2022-12-18T01:35:47.705Z,102097.59
2022-12-18T01:38:19.246Z,102102.73
2022-12-18T01:40:50.056Z,102107.03
2022-12-18T01:43:20.684Z,102101.89
2022-12-18T01:45:51.431Z,102104.30
2022-12-18T01:48:22.313Z,102103.53
2022-12-18T01:50:52.927Z,102094.61
2022-12-18T01:53:26.377Z,102091.73
2022-12-18T01:55:59.707Z,102097.04
2022-12-18T01:58:37.951Z,102102.17
2022-12-18T02:01:09.218Z,102100.73
2022-12-18T02:03:42.981Z,102103.80
2022-12-18T02:06:19.112Z,102107.77
2022-12-18T02:09:03.688Z,102102.91
2022-12-18T02:11:46.318Z,102103.41
2022-12-18T02:14:25.742Z,102105.77
2022-12-18T02:17:06.406Z,102105.61
2022-12-18T02:20:03.774Z,102104.06
2022-12-18T02:22:47.045Z,102106.16
2022-12-18T02:25:30.455Z,102102.30
2022-12-18T02:28:02.295Z,102097.52
2022-12-18T02:30:37.268Z,102102.18
2022-12-18T02:33:11.153Z,102107.11
2022-12-18T02:35:46.265Z,102111.87
2022-12-18T02:38:18.309Z,102116.09
2022-12-18T02:40:51.014Z,102118.23
2022-12-18T02:43:21.907Z,102118.88
2022-12-18T02:45:55.810Z,102116.71
2022-12-18T02:48:30.093Z,102123.79
2022-12-18T02:51:06.378Z,102122.48
2022-12-18T02:53:42.315Z,102117.48
2022-12-18T02:56:20.354Z,102116.08
2022-12-18T02:58:55.900Z,102114.58
2022-12-18T03:01:44.164Z,102114.89
2022-12-18T03:04:22.263Z,102114.95
2022-12-18T03:06:56.819Z,102116.16
2022-12-18T03:09:34.495Z,102117.17
2022-12-18T03:12:25.674Z,102117.52
2022-12-18T03:15:02.908Z,102119.73
2022-12-18T03:17:35.990Z,102120.36
2022-12-18T03:20:12.225Z,102118.98
2022-12-18T03:22:46.396Z,102121.86
2022-12-18T03:25:19.624Z,102130.63
2022-12-18T03:27:56.535Z,102132.65
2022-12-18T03:30:30.197Z,102131.35
2022-12-18T03:33:04.038Z,102127.37
2022-12-18T03:35:39.511Z,102124.19
2022-12-18T03:38:11.553Z,102124.36
2022-12-18T03:40:53.410Z,102130.81
2022-12-18T03:43:37.869Z,102138.43
2022-12-18T03:46:17.699Z,102139.92
2022-12-18T03:49:01.104Z,102136.52
2022-12-18T03:51:41.894Z,102138.25
2022-12-18T03:54:14.416Z,102142.34
2022-12-18T03:56:53.229Z,102142.21
2022-12-18T03:59:27.026Z,102136.33
2022-12-18T04:02:01.785Z,102134.25
2022-12-18T04:04:36.321Z,102129.86
2022-12-18T04:07:08.963Z,102144.77
2022-12-18T04:09:43.932Z,102144.98
2022-12-18T04:12:14.650Z,102140.84
2022-12-18T04:14:45.945Z,102143.70
2022-12-18T04:17:17.733Z,102149.49
2022-12-18T04:19:48.828Z,102158.43
2022-12-18T04:22:19.970Z,102157.73
2022-12-18T04:24:52.206Z,102156.68
2022-12-18T04:27:29.346Z,102159.80
2022-12-18T04:30:01.903Z,102160.27
2022-12-18T04:32:35.148Z,102155.02
2022-12-18T04:35:11.530Z,102149.55
2022-12-18T04:37:42.946Z,102154.27
2022-12-18T04:40:15.642Z,102160.51
2022-12-18T04:42:46.351Z,102163.34
2022-12-18T04:45:17.135Z,102167.36
2022-12-18T04:47:47.914Z,102168.48
2022-12-18T04:50:18.684Z,102172.48
2022-12-18T04:52:49.697Z,102175.30
2022-12-18T04:55:20.362Z,102177.42
2022-12-18T04:57:51.657Z,102173.15
2022-12-18T05:00:22.986Z,102166.60
2022-12-18T05:02:53.837Z,102163.42
2022-12-18T05:05:25.438Z,102167.36
2022-12-18T05:07:56.169Z,102163.84
2022-12-18T05:10:26.908Z,102160.70
2022-12-18T05:13:00.822Z,102170.27
2022-12-18T05:15:33.522Z,102173.58
2022-12-18T05:18:04.895Z,102169.65
2022-12-18T05:20:35.614Z,102165.55
2022-12-18T05:23:06.406Z,102165.68
2022-12-18T05:25:37.116Z,102168.14
2022-12-18T05:28:08.164Z,102170.08
2022-12-18T05:30:38.887Z,102171.63
2022-12-18T05:33:09.563Z,102180.36
2022-12-18T05:35:40.194Z,102176.99
2022-12-18T05:38:10.873Z,102173.98
2022-12-18T05:40:45.468Z,102169.70
2022-12-18T05:43:21.006Z,102171.98
2022-12-18T05:45:53.019Z,102178.61
2022-12-18T05:48:24.479Z,102179.30
2022-12-18T05:50:55.284Z,102173.71
2022-12-18T05:53:25.907Z,102174.54
2022-12-18T05:55:56.475Z,102176.55
2022-12-18T05:58:27.207Z,102180.37
2022-12-18T06:00:58.292Z,102184.39
2022-12-18T06:03:33.705Z,102183.70
2022-12-18T06:06:04.847Z,102187.58
2022-12-18T06:08:35.503Z,102186.91
2022-12-18T06:11:06.508Z,102183.99
2022-12-18T06:13:37.572Z,102189.38
2022-12-18T06:16:10.040Z,102185.94
2022-12-18T06:18:43.871Z,102181.93
2022-12-18T06:21:14.675Z,102183.56
2022-12-18T06:23:45.456Z,102194.54
2022-12-18T06:26:16.706Z,102198.61
2022-12-18T06:28:47.581Z,102199.09
2022-12-18T06:31:18.302Z,102198.73
2022-12-18T06:33:49.062Z,102201.52
2022-12-18T06:36:20.665Z,102203.59
2022-12-18T06:38:51.663Z,102211.24
2022-12-18T06:41:24.062Z,102213.44
2022-12-18T06:43:59.329Z,102213.09
2022-12-18T06:46:30.564Z,102209.73
2022-12-18T06:49:01.403Z,102211.31
2022-12-18T06:51:32.085Z,102214.44
2022-12-18T06:54:03.107Z,102218.29
2022-12-18T06:56:34.474Z,102220.67
2022-12-18T06:59:05.273Z,102224.40
2022-12-18T07:01:36.050Z,102222.73
2022-12-18T07:04:07.138Z,102233.41
2022-12-18T07:06:37.960Z,102234.40
2022-12-18T07:09:08.842Z,102235.28
2022-12-18T07:11:39.477Z,102234.51
2022-12-18T07:14:10.179Z,102240.63
2022-12-18T07:16:41.881Z,102240.19
2022-12-18T07:19:12.665Z,102238.20
2022-12-18T07:21:43.387Z,102238.73
2022-12-18T07:24:15.339Z,102236.79
2022-12-18T07:26:47.598Z,102238.42
2022-12-18T07:29:18.475Z,102240.98
2022-12-18T07:31:49.290Z,102240.21
2022-12-18T07:34:20.202Z,102239.39
2022-12-18T07:36:50.924Z,102246.61
2022-12-18T07:39:21.706Z,102252.07
2022-12-18T07:42:06.401Z,102256.86
2022-12-18T07:44:38.205Z,102262.20
2022-12-18T07:47:11.957Z,102258.98
2022-12-18T07:49:43.067Z,102260.26
2022-12-18T07:52:14.394Z,102263.60
2022-12-18T07:54:45.054Z,102267.06
2022-12-18T07:57:49.040Z,102268.44
2022-12-18T08:00:15.198Z,102267.14
2022-12-18T08:02:45.895Z,102269.50
2022-12-18T08:05:17.193Z,102260.54
2022-12-18T08:07:47.840Z,102256.74
2022-12-18T08:10:19.066Z,102250.24
2022-12-18T08:12:53.131Z,102249.98
2022-12-18T08:15:23.868Z,102245.45
2022-12-18T08:17:54.565Z,102238.63
2022-12-18T08:20:25.214Z,102230.48
2022-12-18T08:22:55.923Z,102237.21
2022-12-18T08:25:26.631Z,102233.87
2022-12-18T08:27:58.414Z,102233.59
2022-12-18T08:30:29.251Z,102237.16
2022-12-18T08:33:00.298Z,102240.75
2022-12-18T08:35:36.341Z,102236.11
2022-12-18T08:38:08.831Z,102238.73
2022-12-18T08:40:39.462Z,102237.02
2022-12-18T08:43:29.856Z,102231.80
2022-12-18T08:46:00.473Z,102233.93
2022-12-18T08:48:31.401Z,102237.46
2022-12-18T08:51:02.900Z,102234.32
2022-12-18T08:53:35.786Z,102235.48
2022-12-18T08:56:08.137Z,102232.52
2022-12-18T08:58:38.733Z,102240.41
2022-12-18T09:01:11.968Z,102245.84
2022-12-18T09:03:43.890Z,102246.08
2022-12-18T09:06:17.736Z,102249.51
2022-12-18T09:08:48.635Z,102237.39
2022-12-18T09:11:23.465Z,102233.02
2022-12-18T09:13:55.726Z,102233.44
2022-12-18T09:16:32.394Z,102238.75
2022-12-18T09:19:04.058Z,102246.30
2022-12-18T09:21:37.514Z,102253.92
2022-12-18T09:24:14.041Z,102258.27
2022-12-18T09:26:47.343Z,102265.01
2022-12-18T09:29:18.904Z,102267.19
2022-12-18T09:31:50.549Z,102270.38
2022-12-18T09:34:22.825Z,102268.52
2022-12-18T09:36:53.979Z,102267.64
2022-12-18T09:39:24.947Z,102269.58
2022-12-18T09:41:58.113Z,102268.33
2022-12-18T09:44:31.948Z,102262.39
2022-12-18T09:47:11.702Z,102259.70
2022-12-18T09:49:45.304Z,102256.63
2022-12-18T09:52:21.887Z,102256.66
2022-12-18T09:54:57.514Z,102247.73
2022-12-18T09:57:28.820Z,102241.45
2022-12-18T10:00:05.577Z,102241.51
2022-12-18T10:03:03.060Z,102231.70
2022-12-18T10:05:43.006Z,102227.64
2022-12-18T10:08:20.240Z,102225.73
2022-12-18T10:10:55.277Z,102216.45
2022-12-18T10:13:33.697Z,102206.68
2022-12-18T10:16:11.795Z,102197.77
2022-12-18T10:18:59.821Z,102190.33
2022-12-18T10:21:38.257Z,102191.74
2022-12-18T10:24:20.902Z,102188.16
2022-12-18T10:26:51.792Z,102186.81
2022-12-18T10:29:23.439Z,102180.80
2022-12-18T10:31:54.282Z,102180.11
2022-12-18T10:34:25.868Z,102173.76
2022-12-18T10:36:56.770Z,102166.33
2022-12-18T10:39:28.203Z,102163.05
2022-12-18T10:42:14.692Z,102159.27
2022-12-18T10:44:45.359Z,102148.83
2022-12-18T10:47:20.313Z,102147.52
2022-12-18T10:49:55.947Z,102148.58
2022-12-18T10:52:29.379Z,102146.54
2022-12-18T10:55:04.302Z,102151.17
2022-12-18T10:57:38.211Z,102158.65
2022-12-18T11:00:32.760Z,102154.96
2022-12-18T11:03:03.696Z,102153.20
2022-12-18T11:05:37.909Z,102154.10
2022-12-18T11:08:22.408Z,102150.16
2022-12-18T11:10:53.153Z,102155.23
2022-12-18T11:13:25.158Z,102143.68
2022-12-18T11:15:56.148Z,102140.40
2022-12-18T11:18:30.881Z,102137.19
2022-12-18T11:21:08.299Z,102123.79
2022-12-18T11:23:48.387Z,102123.14
2022-12-18T11:26:19.422Z,102118.95
2022-12-18T11:28:53.533Z,102118.56
2022-12-18T11:31:29.676Z,102120.66
2022-12-18T11:34:28.813Z,102128.55
2022-12-18T11:37:03.111Z,102125.40
2022-12-18T11:39:36.196Z,102125.70
2022-12-18T11:42:12.800Z,102119.45
2022-12-18T11:44:49.651Z,102114.59
2022-12-18T11:47:35.525Z,102109.53
2022-12-18T11:50:15.106Z,102113.31
2022-12-18T11:52:46.117Z,102120.05
2022-12-18T11:55:26.145Z,102121.67
2022-12-18T11:58:05.427Z,102124.98
2022-12-18T12:00:38.411Z,102134.02
2022-12-18T12:03:42.090Z,102130.29
2022-12-18T12:06:21.688Z,102123.87
2022-12-18T12:09:00.543Z,102124.67
2022-12-18T12:11:43.306Z,102130.81
2022-12-18T12:14:44.524Z,102134.94
2022-12-18T12:17:25.121Z,102134.80
2022-12-18T12:20:04.000Z,102140.77
2022-12-18T12:22:45.030Z,102148.13
2022-12-18T12:25:31.651Z,102151.23
2022-12-18T12:28:21.303Z,102151.02
2022-12-18T12:31:06.914Z,102148.29
2022-12-18T12:33:49.336Z,102152.73
2022-12-18T12:36:28.532Z,102157.95
2022-12-18T12:39:03.736Z,102172.27
2022-12-18T12:41:54.646Z,102187.36
2022-12-18T12:44:30.459Z,102183.77
2022-12-18T12:47:09.293Z,102188.16
2022-12-18T12:49:41.900Z,102179.66
2022-12-18T12:52:21.005Z,102164.45
2022-12-18T12:54:53.250Z,102163.42
2022-12-18T12:57:33.413Z,102159.39
2022-12-18T13:00:09.042Z,102160.91
2022-12-18T13:02:46.835Z,102160.67
2022-12-18T13:05:26.730Z,102159.23
2022-12-18T13:07:59.282Z,102148.45
2022-12-18T13:10:38.940Z,102147.92
2022-12-18T13:13:13.424Z,102144.91
2022-12-18T13:15:47.480Z,102148.48
2022-12-18T13:18:23.558Z,102144.95
2022-12-18T13:21:10.222Z,102137.80
2022-12-18T13:23:45.747Z,102143.81
2022-12-18T13:26:38.268Z,102145.23
2022-12-18T13:29:08.958Z,102143.39
2022-12-18T13:32:24.147Z,102141.48
2022-12-18T13:35:26.868Z,102148.88
2022-12-18T13:37:58.745Z,102150.20
2022-12-18T13:41:02.023Z,102145.27
2022-12-18T13:43:38.327Z,102142.73
2022-12-18T13:46:30.525Z,102145.60
2022-12-18T13:49:05.476Z,102142.42
2022-12-18T13:51:41.370Z,102146.39
2022-12-18T13:54:24.163Z,102146.05
2022-12-18T13:56:55.156Z,102134.15
2022-12-18T13:59:27.314Z,102130.89
2022-12-18T14:02:00.214Z,102135.46
2022-12-18T14:04:35.071Z,102140.40
2022-12-18T14:07:09.635Z,102138.39
2022-12-18T14:09:44.857Z,102135.48
2022-12-18T14:12:40.652Z,102141.56
2022-12-18T14:15:28.487Z,102151.23
2022-12-18T14:18:02.005Z,102150.08
2022-12-18T14:20:35.173Z,102141.04
2022-12-18T14:23:05.838Z,102145.71
2022-12-18T14:25:36.810Z,102143.19
2022-12-18T14:28:17.873Z,102132.66
2022-12-18T14:30:49.858Z,102134.27
2022-12-18T14:33:22.885Z,102130.29
2022-12-18T14:36:04.763Z,102124.77
2022-12-18T14:38:37.797Z,102119.23
2022-12-18T14:41:12.550Z,102109.95
2022-12-18T14:43:45.545Z,102111.95
2022-12-18T14:46:36.333Z,102114.61
2022-12-18T14:49:20.767Z,102119.48
2022-12-18T14:51:53.966Z,102122.00
2022-12-18T14:54:26.358Z,102118.58
2022-12-18T14:57:04.551Z,102126.47
2022-12-18T14:59:35.698Z,102133.66
2022-12-18T15:02:16.219Z,102142.57
2022-12-18T15:04:47.516Z,102135.71
2022-12-18T15:07:21.082Z,102139.80
2022-12-18T15:10:12.937Z,102139.11
2022-12-18T15:12:45.855Z,102125.91
2022-12-18T15:15:49.259Z,102122.36
2022-12-18T15:18:23.989Z,102122.13
2022-12-18T15:20:56.961Z,102124.86
2022-12-18T15:23:30.494Z,102115.80
2022-12-18T15:26:02.953Z,102114.77
2022-12-18T15:28:39.058Z,102118.13
2022-12-18T15:31:26.333Z,102124.46
2022-12-18T15:34:15.461Z,102120.92
2022-12-18T15:36:46.380Z,102121.36
2022-12-18T15:39:17.210Z,102111.20
2022-12-18T15:42:02.492Z,102108.75
2022-12-18T15:44:33.655Z,102108.02
2022-12-18T15:47:04.580Z,102106.55
2022-12-18T15:49:35.302Z,102098.36
2022-12-18T15:52:06.630Z,102098.33
2022-12-18T15:54:55.144Z,102101.45
2022-12-18T15:57:25.878Z,102104.00
2022-12-18T15:59:59.399Z,102095.64
2022-12-18T16:02:30.806Z,102103.16
2022-12-18T16:05:01.564Z,102106.03
2022-12-18T16:07:32.245Z,102102.83
2022-12-18T16:10:03.342Z,102102.91
2022-12-18T16:12:34.633Z,102087.70
2022-12-18T16:15:08.893Z,102090.50
2022-12-18T16:17:39.991Z,102093.35
2022-12-18T16:20:17.005Z,102087.33
2022-12-18T16:22:48.794Z,102083.16
2022-12-18T16:25:26.339Z,102088.95
2022-12-18T16:27:57.742Z,102088.00
2022-12-18T16:30:37.892Z,102091.92
2022-12-18T16:33:10.640Z,102085.17
2022-12-18T16:35:41.670Z,102090.77
2022-12-18T16:38:13.508Z,102093.50
2022-12-18T16:40:58.112Z,102090.27
2022-12-18T16:43:28.950Z,102091.87
2022-12-18T16:46:02.547Z,102088.34
2022-12-18T16:48:35.559Z,102083.59
2022-12-18T16:51:07.905Z,102081.33
2022-12-18T16:53:38.851Z,102079.98
2022-12-18T16:56:10.329Z,102080.29
2022-12-18T16:58:41.061Z,102088.04
2022-12-18T17:01:13.686Z,102083.09
2022-12-18T17:03:44.984Z,102075.48
2022-12-18T17:06:17.332Z,102069.63
2022-12-18T17:08:50.047Z,102071.66
2022-12-18T17:11:21.470Z,102068.66
2022-12-18T17:13:52.320Z,102065.05
2022-12-18T17:16:23.775Z,102064.11
2022-12-18T17:18:55.363Z,102063.39
2022-12-18T17:21:26.453Z,102067.06
2022-12-18T17:24:02.474Z,102054.84
2022-12-18T17:26:33.443Z,102055.48
2022-12-18T17:29:04.505Z,102051.66
2022-12-18T17:31:35.925Z,102059.80
2022-12-18T17:34:09.372Z,102054.57
2022-12-18T17:36:41.643Z,102047.24
2022-12-18T17:39:20.659Z,102046.34
2022-12-18T17:41:52.321Z,102046.09
2022-12-18T17:44:23.286Z,102051.88
2022-12-18T17:46:54.480Z,102050.55
2022-12-18T17:49:26.244Z,102045.85
2022-12-18T17:51:57.826Z,102037.37
2022-12-18T17:54:29.036Z,102032.05
2022-12-18T17:57:00.228Z,102030.59
2022-12-18T17:59:31.190Z,102025.69
2022-12-18T18:02:02.458Z,102026.11
2022-12-18T18:04:33.779Z,102028.94
2022-12-18T18:07:04.623Z,102019.38
2022-12-18T18:09:35.383Z,102017.13
2022-12-18T18:12:24.392Z,102020.14
2022-12-18T18:14:55.395Z,102016.78
2022-12-18T18:17:26.415Z,102016.98
2022-12-18T18:19:57.031Z,102009.29
2022-12-18T18:22:27.967Z,102011.96
2022-12-18T18:24:59.459Z,102013.89
2022-12-18T18:27:38.241Z,102016.02
2022-12-18T18:30:12.727Z,102016.48
2022-12-18T18:32:43.392Z,102007.94
2022-12-18T18:35:37.488Z,102003.17
2022-12-18T18:38:05.453Z,101998.47
2022-12-18T18:40:36.296Z,101991.90
2022-12-18T18:43:06.978Z,101990.48
2022-12-18T18:45:37.993Z,101995.27
2022-12-18T18:48:10.486Z,101991.42
2022-12-18T18:50:44.004Z,101988.16
2022-12-18T18:53:14.743Z,101982.38
2022-12-18T18:55:45.334Z,101979.95
2022-12-18T18:58:16.022Z,101972.86
2022-12-18T19:00:47.006Z,101975.48
2022-12-18T19:03:21.230Z,101979.09
2022-12-18T19:05:56.002Z,101974.27
2022-12-18T19:08:27.562Z,101960.46
2022-12-18T19:11:00.599Z,101955.37
2022-12-18T19:13:34.405Z,101952.86
2022-12-18T19:16:09.297Z,101954.14
2022-12-18T19:18:41.216Z,101945.29
2022-12-18T19:21:13.755Z,101942.71
2022-12-18T19:23:44.587Z,101933.23
2022-12-18T19:26:31.163Z,101930.92
2022-12-18T19:29:05.049Z,101934.27
2022-12-18T19:31:37.185Z,101933.34
2022-12-18T19:34:09.030Z,101931.82
2022-12-18T19:36:41.522Z,101926.18
2022-12-18T19:39:15.585Z,101913.82
2022-12-18T19:41:47.089Z,101910.38
2022-12-18T19:44:18.807Z,101900.96
2022-12-18T19:46:52.627Z,101896.69
2022-12-18T19:49:26.354Z,101897.96
2022-12-18T19:51:57.111Z,101897.67
2022-12-18T19:54:27.904Z,101902.19
2022-12-18T19:56:58.600Z,101900.88
2022-12-18T19:59:29.294Z,101897.51
2022-12-18T20:02:00.215Z,101891.22
2022-12-18T20:04:32.073Z,101886.61
2022-12-18T20:07:03.315Z,101894.48
2022-12-18T20:09:34.386Z,101883.45
2022-12-18T20:12:06.106Z,101886.52
2022-12-18T20:14:36.585Z,101897.61
2022-12-18T20:17:07.552Z,101896.46
2022-12-18T20:19:39.181Z,101890.67
2022-12-18T20:22:10.897Z,101890.52
2022-12-18T20:24:41.904Z,101889.60
2022-12-18T20:27:17.186Z,101886.73
2022-12-18T20:29:50.171Z,101887.89
2022-12-18T20:32:20.953Z,101887.11
2022-12-18T20:34:51.885Z,101887.19
2022-12-18T20:37:24.613Z,101887.83
2022-12-18T20:39:55.673Z,101876.29
2022-12-18T20:42:28.110Z,101867.11
2022-12-18T20:45:00.312Z,101867.64
2022-12-18T20:47:31.044Z,101864.02
2022-12-18T20:50:02.013Z,101864.95
2022-12-18T20:52:32.623Z,101856.60
2022-12-18T20:55:07.454Z,101846.20
2022-12-18T20:57:39.012Z,101836.77
2022-12-18T21:00:12.366Z,101834.47
2022-12-18T21:02:45.390Z,101843.55
2022-12-18T21:05:16.355Z,101852.08
2022-12-18T21:07:47.287Z,101855.43
2022-12-18T21:10:18.127Z,101849.25
2022-12-18T21:12:58.743Z,101844.54
2022-12-18T21:15:33.990Z,101856.81
2022-12-18T21:18:04.771Z,101861.84
2022-12-18T21:20:35.762Z,101862.00
2022-12-18T21:23:16.583Z,101856.84
2022-12-18T21:25:49.528Z,101860.94
2022-12-18T21:28:26.729Z,101861.22
2022-12-18T21:30:57.965Z,101853.39
2022-12-18T21:33:29.200Z,101862.38
2022-12-18T21:35:59.968Z,101852.14
2022-12-18T21:38:32.028Z,101854.38
2022-12-18T21:41:06.301Z,101856.36
2022-12-18T21:44:10.072Z,101870.66
2022-12-18T21:46:40.353Z,101857.30
2022-12-18T21:49:14.603Z,101848.83
2022-12-18T21:51:46.126Z,101848.48
2022-12-18T21:54:16.817Z,101855.27
2022-12-18T21:56:53.025Z,101857.34
2022-12-18T21:59:25.649Z,101855.80
2022-12-18T22:01:58.321Z,101860.48
2022-12-18T22:04:29.794Z,101850.89
2022-12-18T22:07:05.767Z,101840.16
2022-12-18T22:09:36.502Z,101824.75
2022-12-18T22:12:08.934Z,101821.57
2022-12-18T22:14:39.807Z,101833.33
2022-12-18T22:17:11.159Z,101842.02
2022-12-18T22:19:43.214Z,101843.52
2022-12-18T22:22:14.374Z,101839.84
2022-12-18T22:24:45.034Z,101841.67
2022-12-18T22:27:15.800Z,101845.75
2022-12-18T22:30:05.044Z,101851.66
2022-12-18T22:32:37.318Z,101832.94
2022-12-18T22:35:15.634Z,101836.02
2022-12-18T22:37:48.355Z,101829.08
2022-12-18T22:40:25.306Z,101812.97
2022-12-18T22:42:57.228Z,101819.69
2022-12-18T22:45:29.199Z,101815.86
2022-12-18T22:48:00.048Z,101809.93
2022-12-18T22:50:33.753Z,101818.69
2022-12-18T22:53:04.580Z,101816.17
2022-12-18T22:55:35.279Z,101808.20
2022-12-18T22:58:06.538Z,101803.59
2022-12-18T23:00:37.346Z,101803.09
2022-12-18T23:03:09.750Z,101796.91
2022-12-18T23:05:40.727Z,101786.59
2022-12-18T23:08:11.351Z,101789.58
2022-12-18T23:10:42.070Z,101781.04
2022-12-18T23:13:12.781Z,101787.19
2022-12-18T23:15:45.400Z,101794.23
2022-12-18T23:18:16.129Z,101774.92
2022-12-18T23:20:46.819Z,101774.82
2022-12-18T23:23:18.485Z,101759.52
2022-12-18T23:25:49.255Z,101762.80
2022-12-18T23:28:20.113Z,101755.05
2022-12-18T23:30:50.743Z,101752.10
2022-12-18T23:33:21.584Z,101759.73
2022-12-18T23:35:52.218Z,101753.20
2022-12-18T23:38:22.849Z,101744.27
2022-12-18T23:40:56.324Z,101734.75
2022-12-18T23:43:28.159Z,101726.02
2022-12-18T23:45:58.818Z,101727.69
2022-12-18T23:48:29.542Z,101719.52
2022-12-18T23:51:05.114Z,101713.13
2022-12-18T23:53:36.369Z,101703.59
2022-12-18T23:56:10.895Z,101708.02
2022-12-18T23:58:43.012Z,101690.98
